Domov               UVHVVR             MKGP            O straneh              
ZDRAVSTVENO VARSTVO RASTLIN
  MREŽA AGROMET. POSTAJ
 ► PROGNOSTIČNA OBVESTILA
AGROMETEOROLOŠKI PODATKI -
ARSO
OBVLADOVANJE TVEGANJ ZARADI
NEUGODNIH VREMENSKIH RAZMER
  ► NARAVNE NESREČE
  ► SUŠA/MOČA
  ► NAMAKANJE
  ► ŽLED (gozdarstvo)
KARTOGRAFSKI PRIKAZI
SPLETNE POVEZAVE
PROJEKTI IN PUBLIKACIJE

AGROMETEOROLOŠKA MREŽA: VREMENSKE POSTAJE IN FENOLOŠKA OPAZOVANJA

Pregled podatkov za lokacijo Meranovo, meteorološka postaja 61680

Pregled senzorjev na lokaciji

ID Ime Zadnja
vrednost
Datum
zadnje
spremembe
Tip
senzorja
4202 Omočenost lista (U) 0 U 26.3.2019 18:30 A730WET
4203 Padavine (mm) 0 mm 26.3.2019 18:30 Generic 0.2 mm
4201 Relativna vlaga 2 m (% RH) 31,82 % RH 26.3.2019 18:30 Generic 0 - 100 %
4200 Temperatura 2 m (°C) 8,65 °C 26.3.2019 18:29 Generic -40 - +60 °C

Pregled podatkov zadnjih 24 ur

Zap.
št.
Datum in čas Meranovo
Omočenost
lista
Padavine Relativna
vlaga
2
m
Temperatura
2
m
1 26.3.2019 17:30 0 0 31,8 8,7
2 26.3.2019 17:00 0 0 32,6 8,3
3 26.3.2019 16:30 0 0 31,8 9,6
4 26.3.2019 16:00 0 0 31,2 9,7
5 26.3.2019 15:30 0 0 33,1 8,6
6 26.3.2019 15:00 0 0 32,4 8,8
7 26.3.2019 14:30 0 0 33,5 9,1
8 26.3.2019 14:00 0 0 35,4 8,9
9 26.3.2019 13:30 0 0 37,2 8,6
10 26.3.2019 13:00 0 0 40,5 7,9
11 26.3.2019 12:30 0 0 40,7 7,9
12 26.3.2019 12:00 0 0 45,3 7,1
13 26.3.2019 11:30 0 0 45,9 7
14 26.3.2019 11:00 0 0 48,1 6,5
15 26.3.2019 10:30 0 0 48,8 6,6
16 26.3.2019 10:00 0 0 51,2 6,1
17 26.3.2019 09:30 0 0 53,4 6,3
18 26.3.2019 09:00 0 0 55,6 6,1
19 26.3.2019 08:30 0 0 57,1 5,1
20 26.3.2019 08:00 0 0 61,5 4
21 26.3.2019 07:30 0 0 64,5 3,3
22 26.3.2019 07:00 0 0 68 2,5
23 26.3.2019 06:30 0 0 67,3 2,4
24 26.3.2019 06:00 0 0 67,3 2,3
25 26.3.2019 05:30 0 0 67,8 2,4
26 26.3.2019 05:00 0 0 67,8 2,5
27 26.3.2019 04:30 0 0 67,3 2,6
28 26.3.2019 04:00 0 0 68,2 2,6
29 26.3.2019 03:30 0 0 70,8 2,5
30 26.3.2019 03:00 0 0 71,2 2,5
31 26.3.2019 02:30 0 0 72,6 2,6
32 26.3.2019 02:00 0 0 71,1 2,8
33 26.3.2019 01:30 0 0 78,5 2,5
34 26.3.2019 01:00 0 0 77,9 2,7
35 26.3.2019 00:30 1 0 91,9 2,2
36 26.3.2019 00:00 1 0 94,7 2,1
37 25.3.2019 23:30 4 0 100 1,9
38 25.3.2019 23:00 7 0 99,6 1,9
39 25.3.2019 22:30 6 0 91,2 2,3
40 25.3.2019 22:00 10 0 93,2 2,2
41 25.3.2019 21:30 10 0,4 94,8 2,2
42 25.3.2019 21:00 9 1,2 100 1,9
43 25.3.2019 20:30 10 2 100 2,5
44 25.3.2019 20:00 10 0,4 92,9 3,2
45 25.3.2019 19:30 10 0,2 91,2 3,6
46 25.3.2019 19:00 10 1 100 3,7
47 25.3.2019 18:30 9 1,4 100 3,6
48 25.3.2019 18:00 8 2,4 100 4
© 2011 Ministrstvo za kmetijstvo, gozdarstvo in prehrano. Vse pravice pridržane.